WRC164 UKLL-UKBB
Flight info
| Callsign | WRC164 |
|---|---|
| Flight time | 0h 47m |
| Altitude | 33000 |
| Route | ADBAN N983 SORON M986 SLV |
| Aircraft | A320/M-SDE3FGHIRWY/LB1 |
Departure
| Time | 2026-05-07 14:58 |
|---|---|
| Airport | Lviv International Airport (UKLL) |
Arrival
| Time | 2026-05-07 15:46 |
|---|---|
| Airport | Boryspil International Airport (UKBB) |
| Time | Latitude | Longitude | Altitude | Speed | Heading |
|---|---|---|---|---|---|
| 2026-05-07 14:38 | 49.81235 | 23.95961 | 1067 ft | 0 kts | 46° |
| 2026-05-07 14:50 | 49.81226 | 23.95947 | 1067 ft | 4 kts | 44° |
| 2026-05-07 14:50 | 49.81206 | 23.95920 | 1066 ft | 4 kts | 34° |
| 2026-05-07 14:51 | 49.81182 | 23.95900 | 1067 ft | 4 kts | 13° |
| 2026-05-07 14:51 | 49.81160 | 23.95902 | 1067 ft | 2 kts | 318° |
| 2026-05-07 14:51 | 49.81156 | 23.95908 | 1066 ft | 0 kts | 316° |
| 2026-05-07 14:53 | 49.81156 | 23.95907 | 1065 ft | 1 kts | 316° |
| 2026-05-07 14:53 | 49.81182 | 23.95869 | 1066 ft | 8 kts | 316° |
| 2026-05-07 14:53 | 49.81218 | 23.95815 | 1066 ft | 7 kts | 316° |
| 2026-05-07 14:54 | 49.81249 | 23.95768 | 1066 ft | 6 kts | 316° |
| 2026-05-07 14:54 | 49.81283 | 23.95689 | 1067 ft | 12 kts | 282° |
| 2026-05-07 14:54 | 49.81325 | 23.95576 | 1066 ft | 12 kts | 314° |
| 2026-05-07 14:54 | 49.81385 | 23.95505 | 1066 ft | 10 kts | 334° |
| 2026-05-07 14:55 | 49.81444 | 23.95463 | 1066 ft | 9 kts | 335° |
| 2026-05-07 14:55 | 49.81499 | 23.95394 | 1066 ft | 14 kts | 316° |
| 2026-05-07 14:55 | 49.81591 | 23.95254 | 1066 ft | 21 kts | 316° |
| 2026-05-07 14:55 | 49.81696 | 23.95094 | 1066 ft | 22 kts | 316° |
| 2026-05-07 14:56 | 49.81798 | 23.94942 | 1066 ft | 20 kts | 316° |
| 2026-05-07 14:56 | 49.81903 | 23.94784 | 1066 ft | 22 kts | 316° |
| 2026-05-07 14:56 | 49.82005 | 23.94631 | 1066 ft | 12 kts | 316° |
| 2026-05-07 14:56 | 49.82032 | 23.94581 | 1066 ft | 5 kts | 299° |
| 2026-05-07 14:57 | 49.82039 | 23.94525 | 1066 ft | 7 kts | 271° |
| 2026-05-07 14:57 | 49.82040 | 23.94413 | 1066 ft | 13 kts | 263° |
| 2026-05-07 14:57 | 49.81980 | 23.94332 | 1064 ft | 14 kts | 159° |
| 2026-05-07 14:57 | 49.81904 | 23.94443 | 1066 ft | 21 kts | 136° |
| 2026-05-07 14:58 | 49.81623 | 23.94865 | 1064 ft | 91 kts | 136° |
| 2026-05-07 14:58 | 49.81024 | 23.95759 | 1064 ft | 147 kts | 136° |
| 2026-05-07 14:58 | 49.80253 | 23.96941 | 1500 ft | 153 kts | 138° |
| 2026-05-07 14:58 | 49.79498 | 23.98111 | 2139 ft | 154 kts | 142° |
| 2026-05-07 14:59 | 49.78726 | 23.99269 | 2717 ft | 155 kts | 143° |
| 2026-05-07 14:59 | 49.77905 | 24.00477 | 3090 ft | 174 kts | 143° |
| 2026-05-07 14:59 | 49.76981 | 24.01828 | 3406 ft | 196 kts | 142° |
| 2026-05-07 14:59 | 49.75930 | 24.03375 | 3717 ft | 221 kts | 142° |
| 2026-05-07 15:00 | 49.74755 | 24.05114 | 4124 ft | 245 kts | 141° |
| 2026-05-07 15:00 | 49.73492 | 24.07059 | 4669 ft | 266 kts | 133° |
| 2026-05-07 15:00 | 49.72734 | 24.09744 | 5441 ft | 283 kts | 98° |
| 2026-05-07 15:00 | 49.73040 | 24.12791 | 6261 ft | 294 kts | 69° |
| 2026-05-07 15:01 | 49.73831 | 24.15689 | 7102 ft | 297 kts | 68° |
| 2026-05-07 15:01 | 49.74600 | 24.18675 | 7880 ft | 301 kts | 76° |
| 2026-05-07 15:01 | 49.75078 | 24.21830 | 8671 ft | 302 kts | 84° |
| 2026-05-07 15:01 | 49.75365 | 24.25059 | 9514 ft | 304 kts | 88° |
| 2026-05-07 15:02 | 49.75577 | 24.28332 | 10289 ft | 308 kts | 89° |
| 2026-05-07 15:02 | 49.75777 | 24.31668 | 10874 ft | 319 kts | 89° |
| 2026-05-07 15:02 | 49.75996 | 24.35170 | 11101 ft | 343 kts | 88° |
| 2026-05-07 15:02 | 49.76258 | 24.38934 | 11475 ft | 359 kts | 87° |
| 2026-05-07 15:03 | 49.76556 | 24.42797 | 12141 ft | 364 kts | 87° |
| 2026-05-07 15:03 | 49.76876 | 24.46707 | 12873 ft | 368 kts | 86° |
| 2026-05-07 15:03 | 49.77208 | 24.50656 | 13612 ft | 371 kts | 86° |
| 2026-05-07 15:03 | 49.77543 | 24.54635 | 14270 ft | 374 kts | 86° |
| 2026-05-07 15:04 | 49.77873 | 24.58651 | 14890 ft | 377 kts | 86° |
| 2026-05-07 15:04 | 49.78201 | 24.62705 | 15501 ft | 381 kts | 86° |
| 2026-05-07 15:04 | 49.78531 | 24.66790 | 16100 ft | 384 kts | 86° |
| 2026-05-07 15:04 | 49.78862 | 24.70920 | 16700 ft | 388 kts | 86° |
| 2026-05-07 15:05 | 49.79189 | 24.75029 | 17323 ft | 391 kts | 86° |
| 2026-05-07 15:05 | 49.79518 | 24.79224 | 17922 ft | 394 kts | 86° |
| 2026-05-07 15:05 | 49.79847 | 24.83456 | 18482 ft | 398 kts | 86° |
| 2026-05-07 15:05 | 49.80179 | 24.87737 | 18994 ft | 401 kts | 86° |
| 2026-05-07 15:06 | 49.80386 | 24.92064 | 19501 ft | 402 kts | 93° |
| 2026-05-07 15:06 | 49.80381 | 24.96358 | 20023 ft | 405 kts | 93° |
| 2026-05-07 15:06 | 49.80370 | 25.00744 | 20559 ft | 408 kts | 93° |
| 2026-05-07 15:06 | 49.80355 | 25.05154 | 21090 ft | 411 kts | 93° |
| 2026-05-07 15:07 | 49.80340 | 25.09614 | 21613 ft | 415 kts | 93° |
| 2026-05-07 15:07 | 49.80326 | 25.14060 | 22112 ft | 418 kts | 93° |
| 2026-05-07 15:07 | 49.80311 | 25.18591 | 22602 ft | 421 kts | 93° |
| 2026-05-07 15:07 | 49.80296 | 25.23106 | 23066 ft | 424 kts | 92° |
| 2026-05-07 15:08 | 49.80281 | 25.27711 | 23544 ft | 427 kts | 92° |
| 2026-05-07 15:08 | 49.80261 | 25.32317 | 23945 ft | 429 kts | 92° |
| 2026-05-07 15:08 | 49.80237 | 25.36952 | 24319 ft | 432 kts | 92° |
| 2026-05-07 15:08 | 49.80211 | 25.41622 | 24719 ft | 434 kts | 92° |
| 2026-05-07 15:09 | 49.80184 | 25.46304 | 25095 ft | 436 kts | 92° |
| 2026-05-07 15:09 | 49.80154 | 25.51009 | 25450 ft | 438 kts | 92° |
| 2026-05-07 15:09 | 49.80116 | 25.55740 | 25807 ft | 441 kts | 92° |
| 2026-05-07 15:09 | 49.80074 | 25.60506 | 26151 ft | 443 kts | 92° |
| 2026-05-07 15:10 | 49.80031 | 25.65234 | 26488 ft | 446 kts | 92° |
| 2026-05-07 15:10 | 49.79989 | 25.70043 | 26825 ft | 448 kts | 92° |
| 2026-05-07 15:10 | 49.79952 | 25.74881 | 27142 ft | 451 kts | 92° |
| 2026-05-07 15:10 | 49.79910 | 25.79745 | 27472 ft | 453 kts | 92° |
| 2026-05-07 15:11 | 49.79864 | 25.84627 | 27790 ft | 455 kts | 92° |
| 2026-05-07 15:11 | 49.79819 | 25.89532 | 28107 ft | 457 kts | 92° |
| 2026-05-07 15:11 | 49.79772 | 25.94460 | 28418 ft | 459 kts | 92° |
| 2026-05-07 15:11 | 49.79721 | 25.99406 | 28740 ft | 461 kts | 92° |
| 2026-05-07 15:12 | 49.79664 | 26.04370 | 29039 ft | 462 kts | 92° |
| 2026-05-07 15:12 | 49.79602 | 26.09354 | 29322 ft | 464 kts | 92° |
| 2026-05-07 15:12 | 49.79538 | 26.14358 | 29589 ft | 466 kts | 92° |
| 2026-05-07 15:12 | 49.79475 | 26.19392 | 29860 ft | 468 kts | 92° |
| 2026-05-07 15:13 | 49.79412 | 26.24437 | 30076 ft | 470 kts | 92° |
| 2026-05-07 15:13 | 49.79345 | 26.29504 | 30275 ft | 472 kts | 92° |
| 2026-05-07 15:13 | 49.79273 | 26.34600 | 30483 ft | 474 kts | 92° |
| 2026-05-07 15:13 | 49.79194 | 26.39699 | 30726 ft | 474 kts | 92° |
| 2026-05-07 15:14 | 49.79114 | 26.44790 | 31015 ft | 473 kts | 92° |
| 2026-05-07 15:14 | 49.79037 | 26.49877 | 31296 ft | 473 kts | 92° |
| 2026-05-07 15:14 | 49.78963 | 26.54958 | 31580 ft | 472 kts | 92° |
| 2026-05-07 15:14 | 49.78914 | 26.58327 | 31764 ft | 472 kts | 92° |
| 2026-05-07 15:15 | 49.78806 | 26.65119 | 32140 ft | 472 kts | 93° |
| 2026-05-07 15:15 | 49.78750 | 26.68478 | 32323 ft | 471 kts | 93° |
| 2026-05-07 15:15 | 49.78633 | 26.75192 | 32683 ft | 471 kts | 92° |
| 2026-05-07 15:15 | 49.78540 | 26.80256 | 32908 ft | 471 kts | 92° |
| 2026-05-07 15:16 | 49.78354 | 26.90312 | 32958 ft | 465 kts | 92° |
| 2026-05-07 15:16 | 49.78194 | 26.98636 | 32958 ft | 465 kts | 92° |
| 2026-05-07 15:17 | 49.77988 | 27.08616 | 32955 ft | 463 kts | 92° |
| 2026-05-07 15:17 | 49.77780 | 27.18582 | 32956 ft | 463 kts | 92° |
| 2026-05-07 15:18 | 49.77567 | 27.28535 | 32954 ft | 463 kts | 92° |
| 2026-05-07 15:18 | 49.77340 | 27.38486 | 32953 ft | 463 kts | 92° |
| 2026-05-07 15:19 | 49.77107 | 27.48439 | 32953 ft | 463 kts | 92° |
| 2026-05-07 15:19 | 49.76870 | 27.58377 | 32950 ft | 462 kts | 92° |
| 2026-05-07 15:20 | 49.76617 | 27.68309 | 32950 ft | 462 kts | 92° |
| 2026-05-07 15:20 | 49.76355 | 27.78255 | 32949 ft | 462 kts | 91° |
| 2026-05-07 15:21 | 49.77099 | 27.88014 | 32949 ft | 461 kts | 73° |
| 2026-05-07 15:21 | 49.79304 | 27.97134 | 32968 ft | 437 kts | 68° |
| 2026-05-07 15:22 | 49.80404 | 28.01419 | 32959 ft | 421 kts | 68° |
| 2026-05-07 15:22 | 49.81460 | 28.05557 | 32962 ft | 406 kts | 68° |
| 2026-05-07 15:22 | 49.82475 | 28.09554 | 32962 ft | 391 kts | 68° |
| 2026-05-07 15:22 | 49.83454 | 28.13404 | 32961 ft | 376 kts | 68° |
| 2026-05-07 15:23 | 49.84392 | 28.17102 | 32959 ft | 365 kts | 68° |
| 2026-05-07 15:23 | 49.85331 | 28.20806 | 32960 ft | 375 kts | 68° |
| 2026-05-07 15:23 | 49.87299 | 28.28535 | 32960 ft | 396 kts | 68° |
| 2026-05-07 15:24 | 49.88323 | 28.32572 | 32966 ft | 407 kts | 68° |
| 2026-05-07 15:24 | 49.89367 | 28.36707 | 32958 ft | 417 kts | 67° |
| 2026-05-07 15:24 | 49.90442 | 28.40979 | 32712 ft | 433 kts | 68° |
| 2026-05-07 15:24 | 49.91555 | 28.45405 | 32451 ft | 448 kts | 68° |
| 2026-05-07 15:25 | 49.92697 | 28.49962 | 32188 ft | 458 kts | 68° |
| 2026-05-07 15:25 | 49.93855 | 28.54587 | 31935 ft | 461 kts | 68° |
| 2026-05-07 15:25 | 49.95014 | 28.59232 | 31676 ft | 462 kts | 68° |
| 2026-05-07 15:25 | 49.96162 | 28.63842 | 31348 ft | 463 kts | 68° |
| 2026-05-07 15:26 | 49.97332 | 28.68550 | 30944 ft | 460 kts | 68° |
| 2026-05-07 15:26 | 49.98464 | 28.73114 | 30532 ft | 458 kts | 68° |
| 2026-05-07 15:26 | 49.99603 | 28.77709 | 30084 ft | 454 kts | 68° |
| 2026-05-07 15:26 | 50.00736 | 28.82278 | 29488 ft | 452 kts | 68° |
| 2026-05-07 15:27 | 50.01862 | 28.86827 | 28843 ft | 448 kts | 68° |
| 2026-05-07 15:27 | 50.02974 | 28.91341 | 28192 ft | 446 kts | 69° |
| 2026-05-07 15:27 | 50.04073 | 28.95831 | 27561 ft | 443 kts | 69° |
| 2026-05-07 15:27 | 50.05161 | 29.00295 | 26934 ft | 440 kts | 69° |
| 2026-05-07 15:28 | 50.06236 | 29.04737 | 26328 ft | 437 kts | 69° |
| 2026-05-07 15:28 | 50.07300 | 29.09154 | 25735 ft | 434 kts | 69° |
| 2026-05-07 15:28 | 50.08355 | 29.13549 | 25173 ft | 431 kts | 70° |
| 2026-05-07 15:28 | 50.09398 | 29.17906 | 24623 ft | 428 kts | 70° |
| 2026-05-07 15:29 | 50.10433 | 29.22234 | 24110 ft | 425 kts | 70° |
| 2026-05-07 15:29 | 50.11460 | 29.26530 | 23599 ft | 422 kts | 70° |
| 2026-05-07 15:29 | 50.12479 | 29.30800 | 23004 ft | 419 kts | 70° |
| 2026-05-07 15:29 | 50.13492 | 29.35056 | 22407 ft | 417 kts | 70° |
| 2026-05-07 15:30 | 50.14496 | 29.39287 | 21844 ft | 415 kts | 70° |
| 2026-05-07 15:30 | 50.15493 | 29.43497 | 21328 ft | 412 kts | 71° |
| 2026-05-07 15:30 | 50.16480 | 29.47685 | 20850 ft | 409 kts | 70° |
| 2026-05-07 15:30 | 50.17457 | 29.51832 | 20378 ft | 406 kts | 71° |
| 2026-05-07 15:31 | 50.18417 | 29.55897 | 19934 ft | 402 kts | 70° |
| 2026-05-07 15:31 | 50.19553 | 29.59862 | 19497 ft | 399 kts | 65° |
| 2026-05-07 15:31 | 50.20752 | 29.63744 | 19068 ft | 395 kts | 65° |
| 2026-05-07 15:31 | 50.21939 | 29.67605 | 18641 ft | 392 kts | 65° |
| 2026-05-07 15:32 | 50.23110 | 29.71423 | 18209 ft | 389 kts | 65° |
| 2026-05-07 15:32 | 50.24277 | 29.75236 | 17698 ft | 387 kts | 65° |
| 2026-05-07 15:32 | 50.25432 | 29.79017 | 17198 ft | 385 kts | 65° |
| 2026-05-07 15:32 | 50.26578 | 29.82786 | 16700 ft | 383 kts | 65° |
| 2026-05-07 15:33 | 50.27715 | 29.86538 | 16229 ft | 381 kts | 66° |
| 2026-05-07 15:33 | 50.28849 | 29.90279 | 15737 ft | 379 kts | 66° |
| 2026-05-07 15:33 | 50.29980 | 29.94001 | 15276 ft | 377 kts | 65° |
| 2026-05-07 15:33 | 50.31104 | 29.97700 | 14812 ft | 376 kts | 66° |
| 2026-05-07 15:34 | 50.32220 | 30.01384 | 14353 ft | 374 kts | 66° |
| 2026-05-07 15:34 | 50.33333 | 30.05059 | 13905 ft | 372 kts | 66° |
| 2026-05-07 15:34 | 50.34439 | 30.08709 | 13427 ft | 370 kts | 66° |
| 2026-05-07 15:34 | 50.35534 | 30.12334 | 12956 ft | 367 kts | 66° |
| 2026-05-07 15:35 | 50.36616 | 30.15934 | 12503 ft | 364 kts | 66° |
| 2026-05-07 15:35 | 50.37688 | 30.19506 | 12050 ft | 361 kts | 65° |
| 2026-05-07 15:35 | 50.38746 | 30.23050 | 11582 ft | 358 kts | 66° |
| 2026-05-07 15:35 | 50.39794 | 30.26562 | 11173 ft | 354 kts | 66° |
| 2026-05-07 15:36 | 50.40831 | 30.30031 | 10787 ft | 349 kts | 65° |
| 2026-05-07 15:36 | 50.41854 | 30.33403 | 10662 ft | 336 kts | 65° |
| 2026-05-07 15:36 | 50.42849 | 30.36648 | 10529 ft | 325 kts | 64° |
| 2026-05-07 15:36 | 50.43817 | 30.39786 | 10401 ft | 314 kts | 64° |
| 2026-05-07 15:37 | 50.44753 | 30.42829 | 10181 ft | 307 kts | 64° |
| 2026-05-07 15:37 | 50.45677 | 30.45843 | 9835 ft | 306 kts | 64° |
| 2026-05-07 15:37 | 50.46595 | 30.48849 | 9462 ft | 305 kts | 65° |
| 2026-05-07 15:37 | 50.47502 | 30.51826 | 9095 ft | 300 kts | 64° |
| 2026-05-07 15:38 | 50.48402 | 30.54786 | 8564 ft | 301 kts | 65° |
| 2026-05-07 15:38 | 50.49300 | 30.57748 | 8091 ft | 299 kts | 66° |
| 2026-05-07 15:38 | 50.50183 | 30.60675 | 7626 ft | 295 kts | 66° |
| 2026-05-07 15:38 | 50.51066 | 30.63591 | 7014 ft | 295 kts | 67° |
| 2026-05-07 15:39 | 50.51945 | 30.66502 | 6519 ft | 294 kts | 66° |
| 2026-05-07 15:39 | 50.52806 | 30.69353 | 6107 ft | 291 kts | 67° |
| 2026-05-07 15:39 | 50.53680 | 30.72253 | 5657 ft | 289 kts | 67° |
| 2026-05-07 15:39 | 50.54525 | 30.75059 | 5279 ft | 287 kts | 67° |
| 2026-05-07 15:40 | 50.55132 | 30.77970 | 5097 ft | 273 kts | 85° |
| 2026-05-07 15:40 | 50.55171 | 30.80852 | 4983 ft | 257 kts | 97° |
| 2026-05-07 15:40 | 50.55077 | 30.83605 | 4855 ft | 247 kts | 97° |
| 2026-05-07 15:40 | 50.54993 | 30.86253 | 4584 ft | 239 kts | 97° |
| 2026-05-07 15:41 | 50.54884 | 30.88841 | 4109 ft | 234 kts | 105° |
| 2026-05-07 15:41 | 50.54169 | 30.90929 | 3852 ft | 207 kts | 147° |
| 2026-05-07 15:41 | 50.52869 | 30.91875 | 3638 ft | 208 kts | 184° |
| 2026-05-07 15:41 | 50.51478 | 30.91847 | 3409 ft | 202 kts | 184° |
| 2026-05-07 15:42 | 50.50074 | 30.91708 | 3106 ft | 202 kts | 185° |
| 2026-05-07 15:42 | 50.48681 | 30.91585 | 2838 ft | 200 kts | 184° |
| 2026-05-07 15:42 | 50.47297 | 30.91478 | 2569 ft | 194 kts | 184° |
| 2026-05-07 15:42 | 50.45985 | 30.91381 | 2357 ft | 182 kts | 185° |
| 2026-05-07 15:43 | 50.44764 | 30.91292 | 2110 ft | 170 kts | 185° |
| 2026-05-07 15:43 | 50.43616 | 30.91207 | 1870 ft | 160 kts | 185° |
| 2026-05-07 15:43 | 50.42556 | 30.91128 | 1696 ft | 150 kts | 184° |
| 2026-05-07 15:43 | 50.41543 | 30.91053 | 1498 ft | 140 kts | 184° |
| 2026-05-07 15:44 | 50.40590 | 30.90983 | 1327 ft | 135 kts | 183° |
| 2026-05-07 15:44 | 50.39644 | 30.90912 | 1143 ft | 137 kts | 186° |
| 2026-05-07 15:44 | 50.38705 | 30.90845 | 956 ft | 136 kts | 185° |
| 2026-05-07 15:44 | 50.37749 | 30.90777 | 789 ft | 135 kts | 182° |
| 2026-05-07 15:45 | 50.36830 | 30.90720 | 628 ft | 135 kts | 185° |
| 2026-05-07 15:45 | 50.35875 | 30.90642 | 426 ft | 135 kts | 185° |
| 2026-05-07 15:45 | 50.35038 | 30.90572 | 414 ft | 100 kts | 182° |
| 2026-05-07 15:45 | 50.34519 | 30.90534 | 415 ft | 51 kts | 182° |
| 2026-05-07 15:46 | 50.34193 | 30.90445 | 422 ft | 18 kts | 205° |
| 2026-05-07 15:46 | 50.34082 | 30.90337 | 415 ft | 18 kts | 212° |
| 2026-05-07 15:46 | 50.34033 | 30.90227 | 413 ft | 14 kts | 281° |
| 2026-05-07 15:47 | 50.34117 | 30.90181 | 408 ft | 13 kts | 2° |
| 2026-05-07 15:47 | 50.34204 | 30.90188 | 413 ft | 12 kts | 2° |
| 2026-05-07 15:47 | 50.34284 | 30.90193 | 414 ft | 11 kts | 2° |
| 2026-05-07 15:47 | 50.34378 | 30.90200 | 408 ft | 16 kts | 2° |
| 2026-05-07 15:48 | 50.34486 | 30.90208 | 415 ft | 15 kts | 2° |
| 2026-05-07 15:48 | 50.34593 | 30.90216 | 411 ft | 19 kts | 2° |
| 2026-05-07 15:48 | 50.34758 | 30.90228 | 415 ft | 25 kts | 3° |
| 2026-05-07 15:48 | 50.34926 | 30.90240 | 409 ft | 24 kts | 2° |
| 2026-05-07 15:49 | 50.35089 | 30.90252 | 413 ft | 19 kts | 3° |
| 2026-05-07 15:49 | 50.35179 | 30.90219 | 415 ft | 10 kts | 313° |
| 2026-05-07 15:49 | 50.35193 | 30.90127 | 415 ft | 8 kts | 274° |
| 2026-05-07 15:49 | 50.35210 | 30.90052 | 415 ft | 7 kts | 314° |
| 2026-05-07 15:50 | 50.35247 | 30.90021 | 415 ft | 6 kts | 354° |
| 2026-05-07 15:50 | 50.35269 | 30.90041 | 415 ft | 3 kts | 74° |
| 2026-05-07 15:50 | 50.35270 | 30.90081 | 415 ft | 5 kts | 89° |
| 2026-05-07 15:50 | 50.35269 | 30.90128 | 415 ft | 4 kts | 92° |
| 2026-05-07 15:51 | 50.35268 | 30.90154 | 415 ft | 0 kts | 92° |